Terminal Aerodrome Forecast
Issued by NWS Tampa Bay Area, FL

Home | Current Version | Previous Version | Text Only | Print | Product List | Glossary On
Versions: 1 2 3 4 5 6 7 8 9 10 11 12 13 14 15 16 17 18 19 20 21 22 23 24 25 26 27
000
FTUS42 KTBW 261200 AAA
TAFSRQ
TAF AMD
KSRQ 261258Z 2613/2712 35012KT P6SM -RA BKN015 OVC035
      TEMPO 2613/2615 BKN008
     FM261500 34016G26KT P6SM VCSH SCT015 BKN035
     FM261800 33015G25KT P6SM FEW040 SCT250
     FM262300 35008KT P6SM FEW250=

USA.gov is the U.S. government's official web portal to all federal, state and local government web resources and services.